sensor_id;sensor_type;location;lat;lon;timestamp;P1;durP1;ratioP1;P2;durP2;ratioP2
72123;SDS011;59998;37.126;-8.538;2022-09-09T00:01:49;13.5;;;5.3;;
72123;SDS011;59998;37.126;-8.538;2022-09-09T00:06:45;8.6;;;5.4;;
72123;SDS011;59998;37.126;-8.538;2022-09-09T00:11:39;9.3;;;4.9;;
72123;SDS011;59998;37.126;-8.538;2022-09-09T00:16:28;10.9;;;4.7;;
72123;SDS011;59998;37.126;-8.538;2022-09-09T00:21:21;10.0;;;4.8;;
72123;SDS011;59998;37.126;-8.538;2022-09-09T00:26:13;10.7;;;4.9;;
72123;SDS011;59998;37.126;-8.538;2022-09-09T00:31:11;9.1;;;4.8;;
72123;SDS011;59998;37.126;-8.538;2022-09-09T00:35:58;8.2;;;5.1;;
72123;SDS011;59998;37.126;-8.538;2022-09-09T00:40:48;11.0;;;5.0;;
72123;SDS011;59998;37.126;-8.538;2022-09-09T00:45:42;10.4;;;4.6;;
72123;SDS011;59998;37.126;-8.538;2022-09-09T00:50:49;8.2;;;4.7;;
72123;SDS011;59998;37.126;-8.538;2022-09-09T00:55:43;7.4;;;4.6;;
72123;SDS011;59998;37.126;-8.538;2022-09-09T01:00:35;8.8;;;4.6;;
72123;SDS011;59998;37.126;-8.538;2022-09-09T01:05:33;9.2;;;4.5;;
72123;SDS011;59998;37.126;-8.538;2022-09-09T01:10:26;10.3;;;4.7;;
72123;SDS011;59998;37.126;-8.538;2022-09-09T01:15:18;15.7;;;4.9;;
72123;SDS011;59998;37.126;-8.538;2022-09-09T01:20:10;12.1;;;4.7;;
72123;SDS011;59998;37.126;-8.538;2022-09-09T01:25:09;6.7;;;4.6;;
72123;SDS011;59998;37.126;-8.538;2022-09-09T01:30:04;9.0;;;4.8;;
72123;SDS011;59998;37.126;-8.538;2022-09-09T01:34:53;9.3;;;4.8;;
72123;SDS011;59998;37.126;-8.538;2022-09-09T01:39:40;8.8;;;4.8;;
72123;SDS011;59998;37.126;-8.538;2022-09-09T01:44:30;10.2;;;4.9;;
72123;SDS011;59998;37.126;-8.538;2022-09-09T01:49:17;8.9;;;4.9;;
72123;SDS011;59998;37.126;-8.538;2022-09-09T01:54:05;8.7;;;4.8;;
72123;SDS011;59998;37.126;-8.538;2022-09-09T01:59:05;8.3;;;4.5;;
72123;SDS011;59998;37.126;-8.538;2022-09-09T02:03:57;7.4;;;4.5;;
72123;SDS011;59998;37.126;-8.538;2022-09-09T02:08:47;7.9;;;4.5;;
72123;SDS011;59998;37.126;-8.538;2022-09-09T02:13:36;7.0;;;4.5;;
72123;SDS011;59998;37.126;-8.538;2022-09-09T02:18:24;8.3;;;4.7;;
72123;SDS011;59998;37.126;-8.538;2022-09-09T02:23:13;9.6;;;4.8;;
72123;SDS011;59998;37.126;-8.538;2022-09-09T02:28:02;8.0;;;4.5;;
72123;SDS011;59998;37.126;-8.538;2022-09-09T02:32:53;8.7;;;4.6;;
72123;SDS011;59998;37.126;-8.538;2022-09-09T02:37:42;9.9;;;4.9;;
72123;SDS011;59998;37.126;-8.538;2022-09-09T02:42:30;8.0;;;4.7;;
72123;SDS011;59998;37.126;-8.538;2022-09-09T02:47:26;9.7;;;4.7;;
72123;SDS011;59998;37.126;-8.538;2022-09-09T02:52:17;10.1;;;5.0;;
72123;SDS011;59998;37.126;-8.538;2022-09-09T02:57:06;7.8;;;4.9;;
72123;SDS011;59998;37.126;-8.538;2022-09-09T03:01:57;9.7;;;4.7;;
72123;SDS011;59998;37.126;-8.538;2022-09-09T03:06:43;10.7;;;4.6;;
72123;SDS011;59998;37.126;-8.538;2022-09-09T03:11:29;11.2;;;4.8;;
72123;SDS011;59998;37.126;-8.538;2022-09-09T03:16:15;10.6;;;4.8;;
72123;SDS011;59998;37.126;-8.538;2022-09-09T03:21:01;10.3;;;4.7;;
72123;SDS011;59998;37.126;-8.538;2022-09-09T03:25:50;10.4;;;4.9;;
72123;SDS011;59998;37.126;-8.538;2022-09-09T03:30:36;8.2;;;4.9;;
72123;SDS011;59998;37.126;-8.538;2022-09-09T03:35:23;10.8;;;4.8;;
72123;SDS011;59998;37.126;-8.538;2022-09-09T03:40:09;13.0;;;4.9;;
72123;SDS011;59998;37.126;-8.538;2022-09-09T03:44:56;11.8;;;5.1;;
72123;SDS011;59998;37.126;-8.538;2022-09-09T03:49:42;13.4;;;5.9;;
72123;SDS011;59998;37.126;-8.538;2022-09-09T03:54:29;12.1;;;5.9;;
72123;SDS011;59998;37.126;-8.538;2022-09-09T03:59:15;10.2;;;5.1;;
72123;SDS011;59998;37.126;-8.538;2022-09-09T04:04:01;12.6;;;5.3;;
72123;SDS011;59998;37.126;-8.538;2022-09-09T04:08:48;14.8;;;5.3;;
72123;SDS011;59998;37.126;-8.538;2022-09-09T04:13:34;12.6;;;5.4;;
72123;SDS011;59998;37.126;-8.538;2022-09-09T04:18:25;9.9;;;5.3;;
72123;SDS011;59998;37.126;-8.538;2022-09-09T04:23:15;11.2;;;4.8;;
72123;SDS011;59998;37.126;-8.538;2022-09-09T04:28:02;10.8;;;4.9;;
72123;SDS011;59998;37.126;-8.538;2022-09-09T04:32:49;8.8;;;4.8;;
72123;SDS011;59998;37.126;-8.538;2022-09-09T04:37:35;10.5;;;5.1;;
72123;SDS011;59998;37.126;-8.538;2022-09-09T04:42:21;13.3;;;5.3;;
72123;SDS011;59998;37.126;-8.538;2022-09-09T04:47:08;14.4;;;4.9;;
72123;SDS011;59998;37.126;-8.538;2022-09-09T04:51:57;12.3;;;5.2;;
72123;SDS011;59998;37.126;-8.538;2022-09-09T04:56:43;8.9;;;5.3;;
72123;SDS011;59998;37.126;-8.538;2022-09-09T05:01:29;10.6;;;4.9;;
72123;SDS011;59998;37.126;-8.538;2022-09-09T05:06:16;13.1;;;5.1;;
72123;SDS011;59998;37.126;-8.538;2022-09-09T05:11:03;12.9;;;5.4;;
72123;SDS011;59998;37.126;-8.538;2022-09-09T05:15:53;10.7;;;5.5;;
72123;SDS011;59998;37.126;-8.538;2022-09-09T05:20:39;10.2;;;5.3;;
72123;SDS011;59998;37.126;-8.538;2022-09-09T05:25:26;11.3;;;5.0;;
72123;SDS011;59998;37.126;-8.538;2022-09-09T05:30:15;10.1;;;5.1;;
72123;SDS011;59998;37.126;-8.538;2022-09-09T05:35:01;11.2;;;5.3;;
72123;SDS011;59998;37.126;-8.538;2022-09-09T05:39:50;16.2;;;5.3;;
72123;SDS011;59998;37.126;-8.538;2022-09-09T05:44:36;18.7;;;5.7;;
72123;SDS011;59998;37.126;-8.538;2022-09-09T05:49:23;19.3;;;6.1;;
72123;SDS011;59998;37.126;-8.538;2022-09-09T05:54:11;14.6;;;5.7;;
72123;SDS011;59998;37.126;-8.538;2022-09-09T05:58:57;10.5;;;5.6;;
72123;SDS011;59998;37.126;-8.538;2022-09-09T06:03:45;12.1;;;5.7;;
72123;SDS011;59998;37.126;-8.538;2022-09-09T06:08:32;12.1;;;5.6;;
72123;SDS011;59998;37.126;-8.538;2022-09-09T06:13:19;14.1;;;5.9;;
72123;SDS011;59998;37.126;-8.538;2022-09-09T06:18:05;17.7;;;5.9;;
72123;SDS011;59998;37.126;-8.538;2022-09-09T06:22:52;14.3;;;5.9;;
72123;SDS011;59998;37.126;-8.538;2022-09-09T06:27:38;11.1;;;6.0;;
72123;SDS011;59998;37.126;-8.538;2022-09-09T06:32:24;14.7;;;5.7;;
72123;SDS011;59998;37.126;-8.538;2022-09-09T06:37:11;14.1;;;5.5;;
72123;SDS011;59998;37.126;-8.538;2022-09-09T06:41:57;11.3;;;5.4;;
72123;SDS011;59998;37.126;-8.538;2022-09-09T06:46:44;11.5;;;5.5;;
72123;SDS011;59998;37.126;-8.538;2022-09-09T06:51:31;12.0;;;5.8;;
72123;SDS011;59998;37.126;-8.538;2022-09-09T06:56:20;13.9;;;6.2;;
72123;SDS011;59998;37.126;-8.538;2022-09-09T07:01:08;14.9;;;6.6;;
72123;SDS011;59998;37.126;-8.538;2022-09-09T07:05:57;16.2;;;6.8;;
72123;SDS011;59998;37.126;-8.538;2022-09-09T07:10:44;15.1;;;6.4;;
72123;SDS011;59998;37.126;-8.538;2022-09-09T07:15:30;12.0;;;6.2;;
72123;SDS011;59998;37.126;-8.538;2022-09-09T07:20:18;10.7;;;6.2;;
72123;SDS011;59998;37.126;-8.538;2022-09-09T07:25:05;12.1;;;6.1;;
72123;SDS011;59998;37.126;-8.538;2022-09-09T07:29:51;13.2;;;5.9;;
72123;SDS011;59998;37.126;-8.538;2022-09-09T07:34:38;12.7;;;5.7;;
72123;SDS011;59998;37.126;-8.538;2022-09-09T07:39:24;12.3;;;5.5;;
72123;SDS011;59998;37.126;-8.538;2022-09-09T07:44:11;10.9;;;5.5;;
72123;SDS011;59998;37.126;-8.538;2022-09-09T07:49:00;9.8;;;5.4;;
72123;SDS011;59998;37.126;-8.538;2022-09-09T07:53:46;10.2;;;5.4;;
72123;SDS011;59998;37.126;-8.538;2022-09-09T07:58:33;12.9;;;5.5;;
72123;SDS011;59998;37.126;-8.538;2022-09-09T08:03:19;18.6;;;5.8;;
72123;SDS011;59998;37.126;-8.538;2022-09-09T08:08:06;18.4;;;5.8;;
72123;SDS011;59998;37.126;-8.538;2022-09-09T08:12:52;15.6;;;5.5;;
72123;SDS011;59998;37.126;-8.538;2022-09-09T08:17:38;13.1;;;5.7;;
72123;SDS011;59998;37.126;-8.538;2022-09-09T08:22:25;8.2;;;5.5;;
72123;SDS011;59998;37.126;-8.538;2022-09-09T08:27:11;10.8;;;5.5;;
72123;SDS011;59998;37.126;-8.538;2022-09-09T08:32:00;13.2;;;5.6;;
72123;SDS011;59998;37.126;-8.538;2022-09-09T08:36:47;11.0;;;5.6;;
72123;SDS011;59998;37.126;-8.538;2022-09-09T08:42:11;9.4;;;5.7;;
72123;SDS011;59998;37.126;-8.538;2022-09-09T08:47:06;9.8;;;5.8;;
72123;SDS011;59998;37.126;-8.538;2022-09-09T08:51:59;8.7;;;5.4;;
72123;SDS011;59998;37.126;-8.538;2022-09-09T08:56:46;8.2;;;5.0;;
72123;SDS011;59998;37.126;-8.538;2022-09-09T09:01:44;10.6;;;5.2;;
72123;SDS011;59998;37.126;-8.538;2022-09-09T09:06:48;13.3;;;5.5;;
72123;SDS011;59998;37.126;-8.538;2022-09-09T09:11:39;16.2;;;6.5;;
72123;SDS011;59998;37.126;-8.538;2022-09-09T09:16:30;12.8;;;6.1;;
72123;SDS011;59998;37.126;-8.538;2022-09-09T09:21:21;9.8;;;5.2;;
72123;SDS011;59998;37.126;-8.538;2022-09-09T09:26:18;9.4;;;5.2;;
72123;SDS011;59998;37.126;-8.538;2022-09-09T09:31:09;8.0;;;5.3;;
72123;SDS011;59998;37.126;-8.538;2022-09-09T09:35:56;12.6;;;5.7;;
72123;SDS011;59998;37.126;-8.538;2022-09-09T09:40:49;13.1;;;5.6;;
72123;SDS011;59998;37.126;-8.538;2022-09-09T09:45:41;11.2;;;5.6;;
72123;SDS011;59998;37.126;-8.538;2022-09-09T09:50:28;12.4;;;5.7;;
72123;SDS011;59998;37.126;-8.538;2022-09-09T09:55:15;12.8;;;5.6;;
72123;SDS011;59998;37.126;-8.538;2022-09-09T10:00:03;13.2;;;5.5;;
72123;SDS011;59998;37.126;-8.538;2022-09-09T10:05:02;17.1;;;5.7;;
72123;SDS011;59998;37.126;-8.538;2022-09-09T10:09:52;15.7;;;5.9;;
72123;SDS011;59998;37.126;-8.538;2022-09-09T10:14:42;13.7;;;5.8;;
72123;SDS011;59998;37.126;-8.538;2022-09-09T10:19:34;13.5;;;5.8;;
72123;SDS011;59998;37.126;-8.538;2022-09-09T10:24:29;13.2;;;5.6;;
72123;SDS011;59998;37.126;-8.538;2022-09-09T10:30:14;13.0;;;5.7;;
72123;SDS011;59998;37.126;-8.538;2022-09-09T10:35:04;9.9;;;5.7;;
72123;SDS011;59998;37.126;-8.538;2022-09-09T10:39:59;9.8;;;5.3;;
72123;SDS011;59998;37.126;-8.538;2022-09-09T10:44:58;12.4;;;5.4;;
72123;SDS011;59998;37.126;-8.538;2022-09-09T10:49:57;12.2;;;5.7;;
72123;SDS011;59998;37.126;-8.538;2022-09-09T10:54:59;12.3;;;5.4;;
72123;SDS011;59998;37.126;-8.538;2022-09-09T10:59:48;12.1;;;4.9;;
72123;SDS011;59998;37.126;-8.538;2022-09-09T11:04:40;11.8;;;4.8;;
72123;SDS011;59998;37.126;-8.538;2022-09-09T11:09:32;12.6;;;5.4;;
72123;SDS011;59998;37.126;-8.538;2022-09-09T11:14:26;12.1;;;5.3;;
72123;SDS011;59998;37.126;-8.538;2022-09-09T11:19:19;12.6;;;4.9;;
72123;SDS011;59998;37.126;-8.538;2022-09-09T11:24:10;11.1;;;5.1;;
72123;SDS011;59998;37.126;-8.538;2022-09-09T11:29:05;9.3;;;5.1;;
72123;SDS011;59998;37.126;-8.538;2022-09-09T11:34:06;9.2;;;5.0;;
72123;SDS011;59998;37.126;-8.538;2022-09-09T11:39:00;12.3;;;5.4;;
72123;SDS011;59998;37.126;-8.538;2022-09-09T11:43:59;12.3;;;5.4;;
72123;SDS011;59998;37.126;-8.538;2022-09-09T11:49:00;12.0;;;5.4;;
72123;SDS011;59998;37.126;-8.538;2022-09-09T11:53:49;11.7;;;5.4;;
72123;SDS011;59998;37.126;-8.538;2022-09-09T11:58:40;11.8;;;5.6;;
72123;SDS011;59998;37.126;-8.538;2022-09-09T12:03:36;14.9;;;6.0;;
72123;SDS011;59998;37.126;-8.538;2022-09-09T12:08:27;15.1;;;6.7;;
72123;SDS011;59998;37.126;-8.538;2022-09-09T12:13:18;13.7;;;6.5;;
72123;SDS011;59998;37.126;-8.538;2022-09-09T12:18:06;12.5;;;5.7;;
72123;SDS011;59998;37.126;-8.538;2022-09-09T12:23:58;14.2;;;5.8;;
72123;SDS011;59998;37.126;-8.538;2022-09-09T12:28:52;14.1;;;5.7;;
72123;SDS011;59998;37.126;-8.538;2022-09-09T12:33:45;10.2;;;5.4;;
72123;SDS011;59998;37.126;-8.538;2022-09-09T12:38:32;9.7;;;5.5;;
72123;SDS011;59998;37.126;-8.538;2022-09-09T12:43:21;11.9;;;6.2;;
72123;SDS011;59998;37.126;-8.538;2022-09-09T12:48:09;11.5;;;6.2;;
72123;SDS011;59998;37.126;-8.538;2022-09-09T12:52:58;9.7;;;5.6;;
72123;SDS011;59998;37.126;-8.538;2022-09-09T12:57:47;10.6;;;5.7;;
72123;SDS011;59998;37.126;-8.538;2022-09-09T13:02:35;11.0;;;5.6;;
72123;SDS011;59998;37.126;-8.538;2022-09-09T13:07:21;10.1;;;5.3;;
72123;SDS011;59998;37.126;-8.538;2022-09-09T13:12:10;10.9;;;5.3;;
72123;SDS011;59998;37.126;-8.538;2022-09-09T13:17:00;12.8;;;5.7;;
72123;SDS011;59998;37.126;-8.538;2022-09-09T13:21:48;12.9;;;5.9;;
72123;SDS011;59998;37.126;-8.538;2022-09-09T13:26:34;11.9;;;5.6;;
72123;SDS011;59998;37.126;-8.538;2022-09-09T13:31:22;10.9;;;5.7;;
72123;SDS011;59998;37.126;-8.538;2022-09-09T13:36:11;10.8;;;5.6;;
72123;SDS011;59998;37.126;-8.538;2022-09-09T13:41:00;10.7;;;5.6;;
72123;SDS011;59998;37.126;-8.538;2022-09-09T13:45:54;9.7;;;5.7;;
72123;SDS011;59998;37.126;-8.538;2022-09-09T13:50:41;8.7;;;5.4;;
72123;SDS011;59998;37.126;-8.538;2022-09-09T13:55:35;10.4;;;5.8;;
72123;SDS011;59998;37.126;-8.538;2022-09-09T14:00:25;13.0;;;6.6;;
72123;SDS011;59998;37.126;-8.538;2022-09-09T14:05:13;16.2;;;7.2;;
72123;SDS011;59998;37.126;-8.538;2022-09-09T14:09:59;16.9;;;7.2;;
72123;SDS011;59998;37.126;-8.538;2022-09-09T14:14:45;14.9;;;6.8;;
72123;SDS011;59998;37.126;-8.538;2022-09-09T14:19:32;12.6;;;6.5;;
72123;SDS011;59998;37.126;-8.538;2022-09-09T14:24:18;10.9;;;6.0;;
72123;SDS011;59998;37.126;-8.538;2022-09-09T14:29:04;15.0;;;5.9;;
72123;SDS011;59998;37.126;-8.538;2022-09-09T14:33:51;13.5;;;6.0;;
72123;SDS011;59998;37.126;-8.538;2022-09-09T14:38:38;10.8;;;5.9;;
72123;SDS011;59998;37.126;-8.538;2022-09-09T14:43:24;12.2;;;5.6;;
72123;SDS011;59998;37.126;-8.538;2022-09-09T14:48:11;13.1;;;5.3;;
72123;SDS011;59998;37.126;-8.538;2022-09-09T14:52:57;11.4;;;5.3;;
72123;SDS011;59998;37.126;-8.538;2022-09-09T14:57:44;9.3;;;5.2;;
72123;SDS011;59998;37.126;-8.538;2022-09-09T15:02:32;9.3;;;5.2;;
72123;SDS011;59998;37.126;-8.538;2022-09-09T15:07:19;7.4;;;4.8;;
72123;SDS011;59998;37.126;-8.538;2022-09-09T15:12:06;7.7;;;4.5;;
72123;SDS011;59998;37.126;-8.538;2022-09-09T15:16:52;8.3;;;4.4;;
72123;SDS011;59998;37.126;-8.538;2022-09-09T15:21:38;7.7;;;4.5;;
72123;SDS011;59998;37.126;-8.538;2022-09-09T15:26:25;9.5;;;4.7;;
72123;SDS011;59998;37.126;-8.538;2022-09-09T15:31:13;10.8;;;4.7;;
72123;SDS011;59998;37.126;-8.538;2022-09-09T15:36:11;8.9;;;4.6;;
72123;SDS011;59998;37.126;-8.538;2022-09-09T15:41:02;8.9;;;4.8;;
72123;SDS011;59998;37.126;-8.538;2022-09-09T15:45:49;11.9;;;5.0;;
72123;SDS011;59998;37.126;-8.538;2022-09-09T15:50:42;12.7;;;4.8;;
72123;SDS011;59998;37.126;-8.538;2022-09-09T15:55:29;10.9;;;4.8;;
72123;SDS011;59998;37.126;-8.538;2022-09-09T16:00:15;10.9;;;4.7;;
72123;SDS011;59998;37.126;-8.538;2022-09-09T16:05:05;10.4;;;4.6;;
72123;SDS011;59998;37.126;-8.538;2022-09-09T16:09:51;7.6;;;4.6;;
72123;SDS011;59998;37.126;-8.538;2022-09-09T16:14:38;7.7;;;4.4;;
72123;SDS011;59998;37.126;-8.538;2022-09-09T16:19:24;9.1;;;4.6;;
72123;SDS011;59998;37.126;-8.538;2022-09-09T16:24:12;8.9;;;4.7;;
72123;SDS011;59998;37.126;-8.538;2022-09-09T16:28:58;8.7;;;4.9;;
72123;SDS011;59998;37.126;-8.538;2022-09-09T16:33:45;8.6;;;5.1;;
72123;SDS011;59998;37.126;-8.538;2022-09-09T16:38:32;7.9;;;4.8;;
72123;SDS011;59998;37.126;-8.538;2022-09-09T16:43:18;7.7;;;4.7;;
72123;SDS011;59998;37.126;-8.538;2022-09-09T16:48:05;13.6;;;5.3;;
72123;SDS011;59998;37.126;-8.538;2022-09-09T16:52:51;15.1;;;5.6;;
72123;SDS011;59998;37.126;-8.538;2022-09-09T16:57:38;9.3;;;4.6;;
72123;SDS011;59998;37.126;-8.538;2022-09-09T17:02:25;8.3;;;4.3;;
72123;SDS011;59998;37.126;-8.538;2022-09-09T17:07:12;8.7;;;4.6;;
72123;SDS011;59998;37.126;-8.538;2022-09-09T17:12:00;9.0;;;4.7;;
72123;SDS011;59998;37.126;-8.538;2022-09-09T17:16:46;8.6;;;4.5;;
72123;SDS011;59998;37.126;-8.538;2022-09-09T17:21:33;9.3;;;4.5;;
72123;SDS011;59998;37.126;-8.538;2022-09-09T17:26:19;8.4;;;4.5;;
72123;SDS011;59998;37.126;-8.538;2022-09-09T17:31:06;6.3;;;4.3;;
72123;SDS011;59998;37.126;-8.538;2022-09-09T17:35:54;8.2;;;4.8;;
72123;SDS011;59998;37.126;-8.538;2022-09-09T17:40:41;9.0;;;4.9;;
72123;SDS011;59998;37.126;-8.538;2022-09-09T17:45:27;9.3;;;4.8;;
72123;SDS011;59998;37.126;-8.538;2022-09-09T17:50:14;8.6;;;4.7;;
72123;SDS011;59998;37.126;-8.538;2022-09-09T17:55:00;7.5;;;4.6;;
72123;SDS011;59998;37.126;-8.538;2022-09-09T17:59:46;9.7;;;4.6;;
72123;SDS011;59998;37.126;-8.538;2022-09-09T18:04:33;12.5;;;4.8;;
72123;SDS011;59998;37.126;-8.538;2022-09-09T18:09:40;7.4;;;4.8;;
72123;SDS011;59998;37.126;-8.538;2022-09-09T18:14:28;8.4;;;4.8;;
72123;SDS011;59998;37.126;-8.538;2022-09-09T18:19:16;8.5;;;4.8;;
72123;SDS011;59998;37.126;-8.538;2022-09-09T18:24:05;8.6;;;4.8;;
72123;SDS011;59998;37.126;-8.538;2022-09-09T18:28:53;8.8;;;4.5;;
72123;SDS011;59998;37.126;-8.538;2022-09-09T18:33:42;8.6;;;4.5;;
72123;SDS011;59998;37.126;-8.538;2022-09-09T18:38:28;9.4;;;4.8;;
72123;SDS011;59998;37.126;-8.538;2022-09-09T18:43:16;9.8;;;4.9;;
72123;SDS011;59998;37.126;-8.538;2022-09-09T18:48:02;8.0;;;4.7;;
72123;SDS011;59998;37.126;-8.538;2022-09-09T18:52:48;10.2;;;4.7;;
72123;SDS011;59998;37.126;-8.538;2022-09-09T18:57:35;11.8;;;4.8;;
72123;SDS011;59998;37.126;-8.538;2022-09-09T19:02:21;9.1;;;4.8;;
72123;SDS011;59998;37.126;-8.538;2022-09-09T19:07:07;7.5;;;4.6;;
72123;SDS011;59998;37.126;-8.538;2022-09-09T19:11:56;5.9;;;4.3;;
72123;SDS011;59998;37.126;-8.538;2022-09-09T19:16:43;7.2;;;4.4;;
72123;SDS011;59998;37.126;-8.538;2022-09-09T19:21:32;8.0;;;4.5;;
72123;SDS011;59998;37.126;-8.538;2022-09-09T19:26:20;7.5;;;4.4;;
72123;SDS011;59998;37.126;-8.538;2022-09-09T19:31:07;7.4;;;4.4;;
72123;SDS011;59998;37.126;-8.538;2022-09-09T19:35:57;6.5;;;4.3;;
72123;SDS011;59998;37.126;-8.538;2022-09-09T19:40:44;6.6;;;4.2;;
72123;SDS011;59998;37.126;-8.538;2022-09-09T19:45:30;7.6;;;4.3;;
72123;SDS011;59998;37.126;-8.538;2022-09-09T19:50:16;9.8;;;4.4;;
72123;SDS011;59998;37.126;-8.538;2022-09-09T19:55:02;9.2;;;4.6;;
72123;SDS011;59998;37.126;-8.538;2022-09-09T19:59:49;6.8;;;4.7;;
72123;SDS011;59998;37.126;-8.538;2022-09-09T20:04:35;7.0;;;4.7;;
72123;SDS011;59998;37.126;-8.538;2022-09-09T20:09:22;7.7;;;4.7;;
72123;SDS011;59998;37.126;-8.538;2022-09-09T20:14:08;7.6;;;4.5;;
72123;SDS011;59998;37.126;-8.538;2022-09-09T20:18:57;7.1;;;4.7;;
72123;SDS011;59998;37.126;-8.538;2022-09-09T20:23:44;6.8;;;4.8;;
72123;SDS011;59998;37.126;-8.538;2022-09-09T20:28:31;6.2;;;4.5;;
72123;SDS011;59998;37.126;-8.538;2022-09-09T20:33:18;6.4;;;4.4;;
72123;SDS011;59998;37.126;-8.538;2022-09-09T20:38:04;12.4;;;4.6;;
72123;SDS011;59998;37.126;-8.538;2022-09-09T20:47:40;10.7;;;4.6;;
72123;SDS011;59998;37.126;-8.538;2022-09-09T20:52:26;8.9;;;4.7;;
72123;SDS011;59998;37.126;-8.538;2022-09-09T20:57:13;7.7;;;4.8;;
72123;SDS011;59998;37.126;-8.538;2022-09-09T21:01:59;8.4;;;4.9;;
72123;SDS011;59998;37.126;-8.538;2022-09-09T21:06:46;8.5;;;4.9;;
72123;SDS011;59998;37.126;-8.538;2022-09-09T21:11:33;8.2;;;4.9;;
72123;SDS011;59998;37.126;-8.538;2022-09-09T21:16:22;7.5;;;4.8;;
72123;SDS011;59998;37.126;-8.538;2022-09-09T21:21:10;6.7;;;4.7;;
72123;SDS011;59998;37.126;-8.538;2022-09-09T21:25:57;8.6;;;4.9;;
72123;SDS011;59998;37.126;-8.538;2022-09-09T21:30:47;9.9;;;4.9;;
72123;SDS011;59998;37.126;-8.538;2022-09-09T21:35:36;8.1;;;4.7;;
72123;SDS011;59998;37.126;-8.538;2022-09-09T21:40:23;6.8;;;4.8;;
72123;SDS011;59998;37.126;-8.538;2022-09-09T21:45:09;9.6;;;5.1;;
72123;SDS011;59998;37.126;-8.538;2022-09-09T21:49:58;9.8;;;4.9;;
72123;SDS011;59998;37.126;-8.538;2022-09-09T21:54:45;8.1;;;4.9;;
72123;SDS011;59998;37.126;-8.538;2022-09-09T21:59:31;8.5;;;5.2;;
72123;SDS011;59998;37.126;-8.538;2022-09-09T22:04:20;7.4;;;4.9;;
72123;SDS011;59998;37.126;-8.538;2022-09-09T22:09:06;8.0;;;4.8;;
72123;SDS011;59998;37.126;-8.538;2022-09-09T22:13:53;8.7;;;5.0;;
72123;SDS011;59998;37.126;-8.538;2022-09-09T22:18:39;10.5;;;5.5;;
72123;SDS011;59998;37.126;-8.538;2022-09-09T22:23:28;10.1;;;5.4;;
72123;SDS011;59998;37.126;-8.538;2022-09-09T22:28:14;7.0;;;4.6;;
72123;SDS011;59998;37.126;-8.538;2022-09-09T22:33:01;6.3;;;4.5;;
72123;SDS011;59998;37.126;-8.538;2022-09-09T22:37:47;7.0;;;4.7;;
72123;SDS011;59998;37.126;-8.538;2022-09-09T22:42:34;7.8;;;4.8;;
72123;SDS011;59998;37.126;-8.538;2022-09-09T22:47:20;7.1;;;4.6;;
72123;SDS011;59998;37.126;-8.538;2022-09-09T22:52:06;7.3;;;4.7;;
72123;SDS011;59998;37.126;-8.538;2022-09-09T22:56:53;7.3;;;4.6;;
72123;SDS011;59998;37.126;-8.538;2022-09-09T23:01:39;6.5;;;4.4;;
72123;SDS011;59998;37.126;-8.538;2022-09-09T23:06:26;6.4;;;4.5;;
72123;SDS011;59998;37.126;-8.538;2022-09-09T23:11:12;9.0;;;4.7;;
72123;SDS011;59998;37.126;-8.538;2022-09-09T23:15:59;10.3;;;4.7;;
72123;SDS011;59998;37.126;-8.538;2022-09-09T23:20:53;10.1;;;4.7;;
72123;SDS011;59998;37.126;-8.538;2022-09-09T23:25:42;9.3;;;4.6;;
72123;SDS011;59998;37.126;-8.538;2022-09-09T23:30:29;6.9;;;4.3;;
72123;SDS011;59998;37.126;-8.538;2022-09-09T23:35:15;6.5;;;4.4;;
72123;SDS011;59998;37.126;-8.538;2022-09-09T23:40:03;7.3;;;4.6;;
72123;SDS011;59998;37.126;-8.538;2022-09-09T23:44:52;6.9;;;4.4;;
72123;SDS011;59998;37.126;-8.538;2022-09-09T23:49:39;6.5;;;4.4;;
72123;SDS011;59998;37.126;-8.538;2022-09-09T23:54:25;6.6;;;4.4;;
72123;SDS011;59998;37.126;-8.538;2022-09-09T23:59:11;8.3;;;4.6;;
